Time;durP1;ratioP1;P1;durP2;ratioP2;P2;SDS_P1;SDS_P2;PMS_P1;PMS_P2;Temp;Humidity;BMP_temperature;BMP_pressure;BME280_temperature;BME280_humidity;BME280_pressure;Samples;Min_cycle;Max_cycle;Signal;HPM_P1;HPM_P2
2023/10/22 00:02:55;;;;;;;0.40;0.40;;;;;;;;;;10343375;28;20497;-68
2023/10/22 00:07:58;;;;;;;0.10;0.10;;;;;;;;;;10344020;28;20042;-70
2023/10/22 00:13:01;;;;;;;0.60;0.60;;;;;;;;;;10352149;28;20475;-70
2023/10/22 00:18:05;;;;;;;0.88;0.52;;;;;;;;;;10346865;28;20129;-69
2023/10/22 00:23:08;;;;;;;1.33;0.50;;;;;;;;;;10340844;28;20149;-68
2023/10/22 00:28:11;;;;;;;0.47;0.47;;;;;;;;;;10344004;28;20140;-69
2023/10/22 00:33:15;;;;;;;0.40;0.40;;;;;;;;;;10345903;28;20137;-68
2023/10/22 00:38:18;;;;;;;0.50;0.25;;;;;;;;;;10343635;28;20137;-70
2023/10/22 00:43:20;;;;;;;2.25;0.40;;;;;;;;;;10347472;28;20081;-68
2023/10/22 00:48:25;;;;;;;2.38;0.65;;;;;;;;;;10338361;28;20146;-68
2023/10/22 00:53:30;;;;;;;0.75;0.70;;;;;;;;;;10344484;28;20052;-69
2023/10/22 00:58:34;;;;;;;0.20;0.20;;;;;;;;;;10336808;28;20042;-69
2023/10/22 01:03:38;;;;;;;0.93;0.30;;;;;;;;;;10339921;28;20042;-68
2023/10/22 01:08:41;;;;;;;0.30;0.13;;;;;;;;;;10342662;28;20077;-68
2023/10/22 01:13:44;;;;;;;1.10;0.30;;;;;;;;;;10343712;28;20061;-69
2023/10/22 01:18:47;;;;;;;0.40;0.30;;;;;;;;;;10342384;28;20060;-70
2023/10/22 01:23:50;;;;;;;;;;;;;;;;;;10344821;28;20387;-68
2023/10/22 01:28:54;;;;;;;0.30;0.30;;;;;;;;;;10339962;28;19929;-68
2023/10/22 01:33:56;;;;;;;;;;;;;;;;;;10343859;28;20205;-67
2023/10/22 01:38:59;;;;;;;1.65;0.50;;;;;;;;;;10338546;28;19928;-68
2023/10/22 01:44:03;;;;;;;0.32;0.30;;;;;;;;;;10340452;28;20137;-68
2023/10/22 01:49:05;;;;;;;0.75;0.20;;;;;;;;;;10341138;28;20475;-69
2023/10/22 01:54:08;;;;;;;0.20;0.20;;;;;;;;;;10341061;28;20097;-69
2023/10/22 01:59:12;;;;;;;0.20;0.20;;;;;;;;;;10345053;28;20042;-70
2023/10/22 02:04:15;;;;;;;0.30;0.30;;;;;;;;;;10339085;28;20057;-69
2023/10/22 02:09:17;;;;;;;0.95;0.43;;;;;;;;;;10357189;28;20480;-68
2023/10/22 02:14:21;;;;;;;0.88;0.30;;;;;;;;;;10339305;28;20046;-68
2023/10/22 02:19:23;;;;;;;;;;;;;;;;;;10339062;28;20038;-68
2023/10/22 02:24:28;;;;;;;0.85;0.30;;;;;;;;;;10340741;28;19929;-68
2023/10/22 02:29:32;;;;;;;0.52;0.47;;;;;;;;;;10336642;28;20041;-69
2023/10/22 02:34:35;;;;;;;0.25;0.22;;;;;;;;;;10342869;28;20080;-68
2023/10/22 02:39:38;;;;;;;0.55;0.45;;;;;;;;;;10336241;28;20129;-68
2023/10/22 02:44:42;;;;;;;0.30;0.13;;;;;;;;;;10336914;28;20188;-70
2023/10/22 02:49:45;;;;;;;;;;;;;;;;;;10335535;28;20145;-68
2023/10/22 02:54:48;;;;;;;0.38;0.38;;;;;;;;;;10337830;28;19925;-68
2023/10/22 02:59:53;;;;;;;1.10;0.45;;;;;;;;;;10336216;28;20056;-68
2023/10/22 03:04:55;;;;;;;;;;;;;;;;;;10336842;28;20500;-68
2023/10/22 03:09:58;;;;;;;0.50;0.50;;;;;;;;;;10343373;28;20012;-69
2023/10/22 03:15:03;;;;;;;1.13;0.30;;;;;;;;;;10341989;28;20066;-69
2023/10/22 03:20:06;;;;;;;0.82;0.50;;;;;;;;;;10337050;28;20483;-69
2023/10/22 03:25:09;;;;;;;2.50;0.40;;;;;;;;;;10343674;28;20566;-68
2023/10/22 03:30:14;;;;;;;0.90;0.68;;;;;;;;;;10347846;28;20049;-68
2023/10/22 03:35:17;;;;;;;1.05;0.40;;;;;;;;;;10338171;28;20053;-67
2023/10/22 03:40:20;;;;;;;0.28;0.20;;;;;;;;;;10337700;28;20042;-68
2023/10/22 03:45:24;;;;;;;1.00;0.40;;;;;;;;;;10340216;28;20303;-72
2023/10/22 03:50:27;;;;;;;0.40;0.40;;;;;;;;;;10348718;28;20049;-69
2023/10/22 03:55:29;;;;;;;0.45;0.15;;;;;;;;;;10341105;28;20049;-68
2023/10/22 04:00:33;;;;;;;0.45;0.30;;;;;;;;;;10343132;28;20050;-70
2023/10/22 04:05:36;;;;;;;1.25;0.60;;;;;;;;;;10347902;28;20046;-68
2023/10/22 04:10:45;;;;;;;1.58;0.43;;;;;;;;;;10342351;28;20165;-68
2023/10/22 04:15:49;;;;;;;0.40;0.22;;;;;;;;;;10346154;28;20050;-69
2023/10/22 04:20:52;;;;;;;0.98;0.30;;;;;;;;;;10346495;28;20072;-68
2023/10/22 04:25:55;;;;;;;0.10;0.05;;;;;;;;;;10344204;28;20767;-69
2023/10/22 04:30:58;;;;;;;0.00;0.00;;;;;;;;;;10343400;28;20048;-68
2023/10/22 04:36:01;;;;;;;;;;;;;;;;;;10344471;28;20100;-69
2023/10/22 04:41:09;;;;;;;1.20;0.40;;;;;;;;;;10342535;28;19921;-70
2023/10/22 04:46:13;;;;;;;0.60;0.32;;;;;;;;;;10347572;28;20045;-68
2023/10/22 04:51:17;;;;;;;2.28;0.40;;;;;;;;;;10343297;28;20038;-69
2023/10/22 04:56:20;;;;;;;;;;;;;;;;;;10339873;28;20677;-69
2023/10/22 05:01:24;;;;;;;1.33;0.40;;;;;;;;;;10340874;28;19925;-69
2023/10/22 05:06:27;;;;;;;1.73;0.52;;;;;;;;;;10340427;28;20030;-69
2023/10/22 05:11:29;;;;;;;0.50;0.30;;;;;;;;;;10341377;28;20127;-68
2023/10/22 05:16:33;;;;;;;0.50;0.20;;;;;;;;;;10340271;28;20046;-68
2023/10/22 05:21:38;;;;;;;0.10;0.10;;;;;;;;;;10357811;28;20124;-68
2023/10/22 05:26:40;;;;;;;0.45;0.28;;;;;;;;;;10341787;28;20045;-68
2023/10/22 05:31:44;;;;;;;0.20;0.20;;;;;;;;;;10346062;28;20402;-69
2023/10/22 05:36:47;;;;;;;0.47;0.32;;;;;;;;;;10344137;28;20048;-68
2023/10/22 05:41:49;;;;;;;0.30;0.30;;;;;;;;;;10338008;28;20514;-68
2023/10/22 05:46:53;;;;;;;3.85;0.30;;;;;;;;;;10342629;28;20224;-68
2023/10/22 05:51:55;;;;;;;0.65;0.20;;;;;;;;;;10339009;28;20049;-69
2023/10/22 05:56:58;;;;;;;0.10;0.10;;;;;;;;;;10340163;28;20136;-68
2023/10/22 06:02:02;;;;;;;0.75;0.35;;;;;;;;;;10339857;28;20614;-74
2023/10/22 06:07:05;;;;;;;;;;;;;;;;;;10340093;28;20116;-69
2023/10/22 06:12:09;;;;;;;0.47;0.30;;;;;;;;;;10344852;28;19929;-68
2023/10/22 06:17:13;;;;;;;0.20;0.13;;;;;;;;;;10343367;28;20038;-68
2023/10/22 06:22:16;;;;;;;0.57;0.55;;;;;;;;;;10339249;28;20076;-68
2023/10/22 06:27:18;;;;;;;0.90;0.52;;;;;;;;;;10333923;28;20129;-68
2023/10/22 06:32:22;;;;;;;0.40;0.40;;;;;;;;;;10345229;28;20117;-68
2023/10/22 06:37:25;;;;;;;;;;;;;;;;;;10334879;28;20053;-68
2023/10/22 06:42:29;;;;;;;0.90;0.50;;;;;;;;;;10337699;28;20382;-69
2023/10/22 06:47:36;;;;;;;1.00;0.50;;;;;;;;;;10336678;28;20034;-71
2023/10/22 06:52:39;;;;;;;0.63;0.52;;;;;;;;;;10338474;28;20403;-71
2023/10/22 06:57:44;;;;;;;2.92;0.65;;;;;;;;;;10339522;28;20071;-72
2023/10/22 07:02:49;;;;;;;0.52;0.30;;;;;;;;;;10339788;28;20507;-69
2023/10/22 07:07:51;;;;;;;;;;;;;;;;;;10336336;28;20483;-70
2023/10/22 07:12:54;;;;;;;0.32;0.32;;;;;;;;;;10341142;28;20263;-68
2023/10/22 07:17:58;;;;;;;1.48;0.63;;;;;;;;;;10334610;28;20042;-67
2023/10/22 07:23:01;;;;;;;0.55;0.55;;;;;;;;;;10341135;28;20045;-69
2023/10/22 07:28:04;;;;;;;1.75;0.40;;;;;;;;;;10331914;28;20046;-69
2023/10/22 07:33:11;;;;;;;4.60;0.50;;;;;;;;;;10335012;28;20048;-69
2023/10/22 07:38:14;;;;;;;1.88;0.75;;;;;;;;;;10336754;28;20682;-69
2023/10/22 07:43:16;;;;;;;0.60;0.50;;;;;;;;;;10330746;28;20042;-70
2023/10/22 07:48:20;;;;;;;2.40;0.65;;;;;;;;;;10337087;28;20107;-69
2023/10/22 07:53:23;;;;;;;1.48;0.32;;;;;;;;;;10333694;28;20042;-69
2023/10/22 07:58:25;;;;;;;2.60;0.88;;;;;;;;;;10332102;28;20418;-69
2023/10/22 08:03:30;;;;;;;0.50;0.35;;;;;;;;;;10334241;28;20349;-70
2023/10/22 08:08:33;;;;;;;1.20;0.80;;;;;;;;;;10336786;28;20369;-68
2023/10/22 08:13:35;;;;;;;2.70;0.93;;;;;;;;;;10344663;28;20034;-68
2023/10/22 08:18:41;;;;;;;0.40;0.40;;;;;;;;;;10344947;28;20794;-70
2023/10/22 08:23:46;;;;;;;1.08;0.63;;;;;;;;;;10340136;28;20396;-69
2023/10/22 08:28:49;;;;;;;1.30;0.80;;;;;;;;;;10345082;28;20092;-68
2023/10/22 08:33:53;;;;;;;1.35;1.20;;;;;;;;;;10346555;28;20546;-68
2023/10/22 08:38:55;;;;;;;3.42;1.27;;;;;;;;;;10345635;28;20129;-69
2023/10/22 08:43:59;;;;;;;1.20;1.02;;;;;;;;;;10339623;28;20042;-70
2023/10/22 08:49:06;;;;;;;1.73;0.70;;;;;;;;;;10345126;28;20561;-70
2023/10/22 08:54:10;;;;;;;0.73;0.73;;;;;;;;;;10347215;28;20042;-69
2023/10/22 08:59:13;;;;;;;2.05;1.10;;;;;;;;;;10347775;28;20046;-70
2023/10/22 09:04:17;;;;;;;2.22;1.13;;;;;;;;;;10348560;28;20549;-70
2023/10/22 09:09:27;;;;;;;1.75;1.30;;;;;;;;;;10342201;28;20116;-69
2023/10/22 09:14:30;;;;;;;3.38;0.90;;;;;;;;;;10344745;28;20078;-70
2023/10/22 09:19:37;;;;;;;1.20;1.10;;;;;;;;;;10346270;28;20035;-69
2023/10/22 09:24:49;;;;;;;1.30;1.20;;;;;;;;;;10339670;28;20050;-69
2023/10/22 09:29:53;;;;;;;3.72;1.42;;;;;;;;;;10338670;28;20114;-69
2023/10/22 09:35:11;;;;;;;1.52;1.15;;;;;;;;;;10354120;28;20069;-69
2023/10/22 09:40:18;;;;;;;1.13;1.00;;;;;;;;;;10340525;28;20042;-69
2023/10/22 09:45:25;;;;;;;2.40;1.10;;;;;;;;;;10340913;28;20128;-69
2023/10/22 09:50:31;;;;;;;1.27;1.15;;;;;;;;;;10338208;28;20601;-70
2023/10/22 09:55:36;;;;;;;2.80;1.30;;;;;;;;;;10338773;28;20074;-70
2023/10/22 10:00:42;;;;;;;1.50;1.40;;;;;;;;;;10341745;28;20037;-70
2023/10/22 10:05:54;;;;;;;1.60;1.50;;;;;;;;;;10351678;28;20092;-70
2023/10/22 10:10:58;;;;;;;4.15;1.50;;;;;;;;;;10342231;28;20817;-69
2023/10/22 10:16:02;;;;;;;1.83;1.25;;;;;;;;;;10340796;28;20046;-71
2023/10/22 10:21:20;;;;;;;2.25;1.50;;;;;;;;;;10338715;28;20064;-70
2023/10/22 10:26:31;;;;;;;2.45;1.30;;;;;;;;;;10339617;28;20399;-70
2023/10/22 10:31:33;;;;;;;1.35;1.25;;;;;;;;;;10338162;28;20078;-70
2023/10/22 10:36:36;;;;;;;1.75;1.50;;;;;;;;;;10343461;28;20050;-70
2023/10/22 10:41:53;;;;;;;1.50;1.40;;;;;;;;;;10344045;28;20143;-75
2023/10/22 10:47:17;;;;;;;1.40;1.30;;;;;;;;;;10343302;28;20046;-70
2023/10/22 10:52:20;;;;;;;1.75;1.40;;;;;;;;;;10340779;28;20046;-71
2023/10/22 10:57:33;;;;;;;4.45;2.53;;;;;;;;;;10344337;28;20050;-71
2023/10/22 11:02:43;;;;;;;1.58;1.30;;;;;;;;;;10340008;28;20049;-70
2023/10/22 11:07:46;;;;;;;2.97;0.90;;;;;;;;;;10345678;28;20069;-71
2023/10/22 11:12:51;;;;;;;1.13;0.88;;;;;;;;;;10341611;28;20045;-70
2023/10/22 11:18:00;;;;;;;1.33;0.60;;;;;;;;;;10338416;28;20076;-70
2023/10/22 11:23:03;;;;;;;1.25;1.00;;;;;;;;;;10340607;28;20115;-70
2023/10/22 11:28:06;;;;;;;1.05;0.60;;;;;;;;;;10343861;28;20053;-70
2023/10/22 11:33:11;;;;;;;0.70;0.40;;;;;;;;;;10340056;28;20130;-70
2023/10/22 11:38:22;;;;;;;1.60;1.10;;;;;;;;;;10344045;28;20448;-71
2023/10/22 11:43:26;;;;;;;2.15;1.10;;;;;;;;;;10353379;28;20045;-70
2023/10/22 11:48:32;;;;;;;1.80;0.50;;;;;;;;;;10347664;28;20046;-70
2023/10/22 11:53:40;;;;;;;1.25;0.40;;;;;;;;;;10346753;28;20077;-71
2023/10/22 11:58:51;;;;;;;1.88;0.77;;;;;;;;;;10351081;28;20042;-70
2023/10/22 12:03:55;;;;;;;1.20;1.10;;;;;;;;;;10352736;28;20054;-70
2023/10/22 12:08:58;;;;;;;2.50;1.42;;;;;;;;;;10353733;28;20065;-71
2023/10/22 12:14:01;;;;;;;1.65;0.90;;;;;;;;;;10345528;28;20058;-70
2023/10/22 12:19:05;;;;;;;2.10;0.80;;;;;;;;;;10347783;28;20129;-69
2023/10/22 12:24:08;;;;;;;2.17;1.13;;;;;;;;;;10340184;28;20306;-70
2023/10/22 12:29:25;;;;;;;1.17;1.08;;;;;;;;;;10346469;28;20084;-71
2023/10/22 12:34:29;;;;;;;1.63;1.27;;;;;;;;;;10346657;28;20142;-69
2023/10/22 12:39:32;;;;;;;2.97;2.05;;;;;;;;;;10339272;28;20053;-71
2023/10/22 12:44:35;;;;;;;2.03;1.48;;;;;;;;;;10346540;28;21366;-69
2023/10/22 12:49:40;;;;;;;2.45;1.20;;;;;;;;;;10344008;28;20118;-71
2023/10/22 12:54:43;;;;;;;2.38;1.23;;;;;;;;;;10351241;28;20053;-69
2023/10/22 12:59:46;;;;;;;1.17;1.00;;;;;;;;;;10345951;28;20059;-74
2023/10/22 13:04:50;;;;;;;1.10;0.90;;;;;;;;;;10351624;28;20052;-69
2023/10/22 13:09:52;;;;;;;1.67;1.00;;;;;;;;;;10349799;28;20140;-69
2023/10/22 13:14:55;;;;;;;1.23;0.90;;;;;;;;;;10344553;28;20050;-69
2023/10/22 13:19:59;;;;;;;1.55;0.90;;;;;;;;;;10345210;28;20033;-70
2023/10/22 13:25:02;;;;;;;1.45;0.90;;;;;;;;;;10352768;28;20038;-70
2023/10/22 13:30:05;;;;;;;1.95;1.13;;;;;;;;;;10336728;28;20035;-69
2023/10/22 13:35:10;;;;;;;0.85;0.85;;;;;;;;;;10344958;28;20042;-69
2023/10/22 13:40:12;;;;;;;2.38;0.80;;;;;;;;;;10343450;28;20050;-70
2023/10/22 13:45:16;;;;;;;0.90;0.90;;;;;;;;;;10352692;28;20791;-70
2023/10/22 13:50:20;;;;;;;1.58;0.90;;;;;;;;;;10340988;28;20049;-70
2023/10/22 13:55:23;;;;;;;1.23;0.80;;;;;;;;;;10349508;28;20561;-70
2023/10/22 14:00:25;;;;;;;1.25;0.80;;;;;;;;;;10349403;28;20048;-71
2023/10/22 14:05:29;;;;;;;2.17;0.73;;;;;;;;;;10349425;28;20137;-70
2023/10/22 14:10:34;;;;;;;1.90;0.90;;;;;;;;;;10350702;28;20133;-70
2023/10/22 14:15:36;;;;;;;0.75;0.60;;;;;;;;;;10345972;28;20074;-70
2023/10/22 14:20:41;;;;;;;1.30;0.70;;;;;;;;;;10342104;28;20040;-70
2023/10/22 14:25:55;;;;;;;1.25;0.73;;;;;;;;;;10345136;28;20077;-69
2023/10/22 14:30:58;;;;;;;1.27;0.75;;;;;;;;;;10338896;28;20033;-69
2023/10/22 14:36:02;;;;;;;2.03;0.50;;;;;;;;;;10335625;28;20970;-70
2023/10/22 14:41:05;;;;;;;2.05;0.90;;;;;;;;;;10346310;28;20101;-69
2023/10/22 14:46:09;;;;;;;1.83;0.60;;;;;;;;;;10338611;28;20042;-70
2023/10/22 14:51:13;;;;;;;1.85;0.40;;;;;;;;;;10339998;28;20893;-70
2023/10/22 14:56:16;;;;;;;1.20;0.50;;;;;;;;;;10342807;28;20046;-71
2023/10/22 15:01:18;;;;;;;1.10;0.53;;;;;;;;;;10337387;28;20133;-69
2023/10/22 15:06:22;;;;;;;0.73;0.50;;;;;;;;;;10345074;28;20415;-69
2023/10/22 15:11:25;;;;;;;0.90;0.60;;;;;;;;;;10342243;28;20378;-69
2023/10/22 15:16:27;;;;;;;5.13;1.20;;;;;;;;;;10341134;28;20100;-70
2023/10/22 15:21:31;;;;;;;0.90;0.60;;;;;;;;;;10339062;28;20495;-70
2023/10/22 15:26:34;;;;;;;1.88;0.57;;;;;;;;;;10337520;28;20053;-71
2023/10/22 15:31:38;;;;;;;2.10;1.10;;;;;;;;;;10339284;28;20053;-71
2023/10/22 15:36:42;;;;;;;2.78;0.52;;;;;;;;;;10336737;28;20514;-69
2023/10/22 15:41:45;;;;;;;1.80;1.10;;;;;;;;;;10341702;28;20097;-70
2023/10/22 15:46:49;;;;;;;4.22;0.90;;;;;;;;;;10338040;28;20101;-69
2023/10/22 15:51:53;;;;;;;1.13;0.70;;;;;;;;;;10337579;28;20046;-69
2023/10/22 15:56:56;;;;;;;2.22;0.70;;;;;;;;;;10329925;28;20068;-69
2023/10/22 16:01:59;;;;;;;4.05;0.57;;;;;;;;;;10340317;28;20487;-69
2023/10/22 16:07:05;;;;;;;1.48;0.60;;;;;;;;;;10347553;28;20053;-71
2023/10/22 16:12:08;;;;;;;6.95;1.05;;;;;;;;;;10337682;28;20335;-70
2023/10/22 16:17:11;;;;;;;3.47;1.20;;;;;;;;;;10343232;28;20072;-70
2023/10/22 16:22:14;;;;;;;4.68;1.80;;;;;;;;;;10341687;28;20125;-70
2023/10/22 16:27:17;;;;;;;;;;;;;;;;;;10334679;28;20049;-70
2023/10/22 16:32:20;;;;;;;16.38;6.75;;;;;;;;;;10340914;28;19922;-70
2023/10/22 16:37:24;;;;;;;7.10;1.80;;;;;;;;;;10308169;28;1013613;-69
2023/10/22 16:42:26;;;;;;;;;;;;;;;;;;10344521;28;20561;-69
2023/10/22 16:47:29;;;;;;;3.78;1.55;;;;;;;;;;10350760;28;19948;-70
2023/10/22 16:52:33;;;;;;;6.05;1.80;;;;;;;;;;10348452;28;20042;-69
2023/10/22 16:57:37;;;;;;;3.83;1.40;;;;;;;;;;10341799;28;20046;-70
2023/10/22 17:02:41;;;;;;;5.20;1.77;;;;;;;;;;10341805;28;20038;-70
2023/10/22 17:07:45;;;;;;;3.47;1.80;;;;;;;;;;10346854;28;20033;-72
2023/10/22 17:12:48;;;;;;;4.30;1.45;;;;;;;;;;10349358;28;20042;-70
2023/10/22 17:17:50;;;;;;;4.93;1.80;;;;;;;;;;10349960;28;20041;-69
2023/10/22 17:22:54;;;;;;;7.32;1.50;;;;;;;;;;10353342;28;20148;-69
2023/10/22 17:27:57;;;;;;;4.63;1.30;;;;;;;;;;10344402;28;20156;-69
2023/10/22 17:32:59;;;;;;;7.00;1.90;;;;;;;;;;10348397;28;20133;-71
2023/10/22 17:38:03;;;;;;;12.88;5.88;;;;;;;;;;10346440;28;20785;-72
2023/10/22 17:43:06;;;;;;;;;;;;;;;;;;10349182;28;20053;-70
2023/10/22 17:48:09;;;;;;;5.78;2.33;;;;;;;;;;10345074;28;19979;-71
2023/10/22 17:53:13;;;;;;;;;;;;;;;;;;10340222;28;20116;-70
2023/10/22 17:58:29;;;;;;;8.27;2.83;;;;;;;;;;10346537;28;19948;-71
2023/10/22 18:03:33;;;;;;;5.45;2.35;;;;;;;;;;10344051;28;20038;-71
2023/10/22 18:08:36;;;;;;;5.68;2.63;;;;;;;;;;10341744;28;20054;-71
2023/10/22 18:13:40;;;;;;;6.70;3.05;;;;;;;;;;10342077;28;20056;-71
2023/10/22 18:18:43;;;;;;;12.25;4.50;;;;;;;;;;10335161;28;20897;-71
2023/10/22 18:23:46;;;;;;;11.77;4.13;;;;;;;;;;10339245;28;20053;-72
2023/10/22 18:28:49;;;;;;;8.60;3.60;;;;;;;;;;10344154;28;20096;-71
2023/10/22 18:33:52;;;;;;;7.85;3.45;;;;;;;;;;10337808;28;20131;-72
2023/10/22 18:38:55;;;;;;;14.18;4.03;;;;;;;;;;10341852;28;20046;-72
2023/10/22 18:43:59;;;;;;;10.35;3.92;;;;;;;;;;10357692;28;20145;-70
2023/10/22 18:49:03;;;;;;;11.40;4.13;;;;;;;;;;10355859;28;20430;-70
2023/10/22 18:54:08;;;;;;;10.30;3.83;;;;;;;;;;10352540;28;20030;-72
2023/10/22 18:59:12;;;;;;;12.30;4.53;;;;;;;;;;10358259;28;20057;-73
2023/10/22 19:04:15;;;;;;;10.75;4.45;;;;;;;;;;10359651;28;20045;-73
2023/10/22 19:09:18;;;;;;;11.35;4.50;;;;;;;;;;10362212;28;20426;-72
2023/10/22 19:14:22;;;;;;;11.75;3.88;;;;;;;;;;10353970;28;20038;-70
2023/10/22 19:19:24;;;;;;;;;;;;;;;;;;10369579;28;20062;-70
2023/10/22 19:24:27;;;;;;;10.20;4.65;;;;;;;;;;10357186;28;20338;-72
2023/10/22 19:29:31;;;;;;;24.40;8.98;;;;;;;;;;10356259;28;20049;-70
2023/10/22 19:34:34;;;;;;;12.05;4.85;;;;;;;;;;10357723;28;20125;-71
2023/10/22 19:39:37;;;;;;;11.65;5.60;;;;;;;;;;10354155;28;20462;-73
2023/10/22 19:44:41;;;;;;;13.10;4.60;;;;;;;;;;10354893;28;20272;-72
2023/10/22 19:49:44;;;;;;;11.00;4.25;;;;;;;;;;10356808;28;20054;-71
2023/10/22 19:54:46;;;;;;;12.88;4.43;;;;;;;;;;10352094;28;20392;-73
2023/10/22 19:59:50;;;;;;;14.00;5.85;;;;;;;;;;10359250;28;20096;-72
2023/10/22 20:04:53;;;;;;;11.35;4.75;;;;;;;;;;10351335;28;20038;-73
2023/10/22 20:09:56;;;;;;;10.70;3.90;;;;;;;;;;10361718;28;20041;-71
2023/10/22 20:15:00;;;;;;;8.90;4.03;;;;;;;;;;10364662;28;20101;-70
2023/10/22 20:20:03;;;;;;;13.32;4.30;;;;;;;;;;10367984;28;20125;-71
2023/10/22 20:25:06;;;;;;;12.40;4.27;;;;;;;;;;10357588;28;20042;-76
2023/10/22 20:30:11;;;;;;;8.57;3.88;;;;;;;;;;10348329;28;20089;-71
2023/10/22 20:35:13;;;;;;;11.65;3.83;;;;;;;;;;10349560;28;20087;-70
2023/10/22 20:40:16;;;;;;;12.20;4.25;;;;;;;;;;10349130;28;20768;-70
2023/10/22 20:45:35;;;;;;;9.70;4.43;;;;;;;;;;10349511;28;20177;-71
2023/10/22 20:50:38;;;;;;;9.93;4.63;;;;;;;;;;10336656;28;20045;-69
2023/10/22 20:55:41;;;;;;;11.30;4.38;;;;;;;;;;10344486;28;21791;-69
2023/10/22 21:00:45;;;;;;;8.95;3.83;;;;;;;;;;10340898;28;20141;-71
2023/10/22 21:05:48;;;;;;;7.88;3.50;;;;;;;;;;10344278;28;20046;-68
2023/10/22 21:10:51;;;;;;;11.52;3.75;;;;;;;;;;10336346;28;20141;-70
2023/10/22 21:15:54;;;;;;;11.00;4.18;;;;;;;;;;10342592;28;20094;-70
2023/10/22 21:20:58;;;;;;;7.90;3.85;;;;;;;;;;10342610;28;20049;-69
2023/10/22 21:26:02;;;;;;;7.38;3.25;;;;;;;;;;10345046;28;20057;-70
2023/10/22 21:31:06;;;;;;;5.70;2.63;;;;;;;;;;10345450;28;20175;-70
2023/10/22 21:36:09;;;;;;;7.18;2.85;;;;;;;;;;10335426;28;20056;-70
2023/10/22 21:41:15;;;;;;;6.55;2.53;;;;;;;;;;10341835;28;20487;-70
2023/10/22 21:46:19;;;;;;;5.90;2.45;;;;;;;;;;10349751;28;20042;-70
2023/10/22 21:51:21;;;;;;;;;;;;;;;;;;10343413;28;20104;-70
2023/10/22 21:56:25;;;;;;;8.02;2.30;;;;;;;;;;10343160;28;19925;-70
2023/10/22 22:01:29;;;;;;;6.00;2.40;;;;;;;;;;10344223;28;20034;-70
2023/10/22 22:06:31;;;;;;;;;;;;;;;;;;10341510;28;20320;-73
2023/10/22 22:11:34;;;;;;;5.03;2.58;;;;;;;;;;10339269;28;19925;-69
2023/10/22 22:16:38;;;;;;;5.95;2.28;;;;;;;;;;10338868;28;21452;-69
2023/10/22 22:21:40;;;;;;;6.43;2.47;;;;;;;;;;10346137;28;20041;-69
2023/10/22 22:26:43;;;;;;;8.00;2.80;;;;;;;;;;10341067;28;20108;-69
2023/10/22 22:31:47;;;;;;;6.75;2.65;;;;;;;;;;10346786;28;20511;-71
2023/10/22 22:36:49;;;;;;;;;;;;;;;;;;10341442;28;20046;-69
2023/10/22 22:41:52;;;;;;;5.55;2.42;;;;;;;;;;10334938;28;20024;-68
2023/10/22 22:46:56;;;;;;;5.57;2.28;;;;;;;;;;10338823;28;20042;-67
2023/10/22 22:51:58;;;;;;;3.15;1.63;;;;;;;;;;10342061;28;20048;-69
2023/10/22 22:57:02;;;;;;;5.28;2.08;;;;;;;;;;10342756;28;20480;-68
2023/10/22 23:02:06;;;;;;;3.83;1.50;;;;;;;;;;10342094;28;20054;-68
2023/10/22 23:07:09;;;;;;;;;;;;;;;;;;10339110;28;20514;-69
2023/10/22 23:12:11;;;;;;;3.60;1.83;;;;;;;;;;10341730;28;19928;-71
2023/10/22 23:17:15;;;;;;;4.00;1.73;;;;;;;;;;10336339;28;20037;-71
2023/10/22 23:22:18;;;;;;;4.65;2.10;;;;;;;;;;10339115;28;20073;-70
2023/10/22 23:27:21;;;;;;;4.82;1.92;;;;;;;;;;10342952;28;20042;-71
2023/10/22 23:32:25;;;;;;;5.35;2.22;;;;;;;;;;10338188;28;20064;-68
2023/10/22 23:37:27;;;;;;;6.60;2.03;;;;;;;;;;10345215;28;20077;-70
2023/10/22 23:42:30;;;;;;;3.35;1.92;;;;;;;;;;10339959;28;20042;-71
2023/10/22 23:47:33;;;;;;;3.95;2.13;;;;;;;;;;10343711;28;20372;-70
2023/10/22 23:52:36;;;;;;;4.70;2.00;;;;;;;;;;10342008;28;20059;-69
2023/10/22 23:57:38;;;;;;;3.90;1.60;;;;;;;;;;10342875;28;20046;-70
